Aérodrome :
LOGIN :

S'inscrire | Disclaimer

   EN    FR    IT 

 










Légende :    VFR   VFR Marginal   IFR   IFR Intensif   IFR Très Intensif
Visi : 
Plafond : 
>= 8 km
>= 3000ft
5 à 8 km
1000 à 3000 ft
1500m à 5 km
500 à 1000 ft
800 à 1500m
200 à 500 ft
< 800m
< 200 ft
Symboles :   Orages  Brouillard  Fortes neiges  Fortes précipitations  Vent > 20 kt
SIGMETs :   Divers  Orages  Givrage  Turbulence  Onde Orograph.  Cendres Volcan.







- Altitude de l'aérodrome : 392 ft
- Code IATA : CDG
- Voir les cartes d'approche


LFPG - Paris-Aeroport Charles De Gaulle

DERNIER METAR :
  • 270630Z 13008KT CAVOK 09/03 Q1011 NOSIG

METARs EXPIRÉS :
  • 270600Z 12006KT CAVOK 10/03 Q1011 NOSIG
  • 270530Z 11006KT CAVOK 09/04 Q1012 NOSIG
  • 270500Z 11007KT CAVOK 08/03 Q1012 NOSIG
  • 270430Z 10008KT CAVOK 08/04 Q1012 NOSIG
  • 270400Z 10008KT CAVOK 08/04 Q1012 NOSIG
  • 270330Z 10007KT CAVOK 09/03 Q1013 NOSIG

TAF TAF LFPG
Valide du 27 à 06h jusqu'au 28 à 12h UTC


270500Z 2706/2812 12005KT CAVOK
BECMG 2711/2713 20010KT
TEMPO 2714/2803 22015G25KT TX19/2714Z TN08/2706Z
ATIS : +33 1 48 62 10 92
Pas de NOTAMs connus pour ce terrain.



MET'MAP, la Météo Aéronautique d'un coup d'oeil ! - Copyright ORBIFLY Décembre 2007 - Disclaimer

ORBIFLY MET'MAP TEAM :

Programmation & Développement : Alexandra Zaïnal
Conception & Développement : Baudouin d'Aumeries
Co-Programmation & Développement : Marc-Olivier Méhu
Soutien technique & logistique : Manuel Goepfert

Contact : metmap@orbifly.com




SOURCES & CREDITS :

   NOAA